Time,TemperatureF,DewpointF,PressureIn,WindDirection,WindDirectionDegrees,WindSpeedMPH,WindSpeedGustMPH,Humidity,HourlyPrecipIn,Conditions,Clouds,dailyrainin,SolarRadiationWatts/m^2,SoftwareType,DateUTC
2013-02-09 00:02:00,42.3,36.0,30.05,WNW,288,4.0,5.0,78,0.00,,,0.01,0,weatherlink.com 1.10,2013-02-09 08:02:00,
2013-02-09 00:17:00,41.8,35.0,30.05,NW,325,2.0,5.0,78,0.00,,,0.00,0,weatherlink.com 1.10,2013-02-09 08:17:00,
2013-02-09 00:32:00,44.7,37.0,30.04,North,5,11.0,17.0,74,0.00,,,0.00,0,weatherlink.com 1.10,2013-02-09 08:32:00,
2013-02-09 00:47:00,45.7,37.0,30.05,NNE,15,4.0,16.0,71,0.00,,,0.00,0,weatherlink.com 1.10,2013-02-09 08:47:00,
2013-02-09 01:02:00,44.9,36.0,30.04,NNW,341,1.0,7.0,71,0.00,,,0.00,0,weatherlink.com 1.10,2013-02-09 09:02:00,
2013-02-09 01:17:00,43.3,36.0,30.04,West,280,0.0,5.0,74,0.00,,,0.00,0,weatherlink.com 1.10,2013-02-09 09:17:00,
2013-02-09 01:33:00,41.0,34.0,30.04,SE,130,1.0,7.0,75,0.00,,,0.00,0,weatherlink.com 1.10,2013-02-09 09:33:00,
2013-02-09 01:47:00,39.5,33.0,30.05,NE,38,3.0,6.0,77,0.00,,,0.00,0,weatherlink.com 1.10,2013-02-09 09:47:00,
2013-02-09 02:03:00,38.5,33.0,30.05,NE,50,5.0,6.0,79,0.00,,,0.00,0,weatherlink.com 1.10,2013-02-09 10:03:00,
2013-02-09 02:17:00,37.7,32.0,30.05,NE,40,3.0,7.0,80,0.00,,,0.00,0,weatherlink.com 1.10,2013-02-09 10:17:00,
2013-02-09 02:32:00,37.4,32.0,30.05,NE,42,6.0,7.0,80,0.00,,,0.00,0,weatherlink.com 1.10,2013-02-09 10:32:00,
2013-02-09 02:47:00,37.1,31.0,30.04,NE,43,1.0,6.0,80,0.00,,,0.00,0,weatherlink.com 1.10,2013-02-09 10:47:00,
2013-02-09 03:03:00,36.7,31.0,30.04,NE,49,5.0,7.0,80,0.00,,,0.00,0,weatherlink.com 1.10,2013-02-09 11:03:00,
2013-02-09 03:18:00,36.4,31.0,30.04,NNE,28,3.0,7.0,81,0.00,,,0.00,0,weatherlink.com 1.10,2013-02-09 11:18:00,
2013-02-09 03:33:00,36.9,32.0,30.04,NNE,23,2.0,4.0,81,0.00,,,0.00,0,weatherlink.com 1.10,2013-02-09 11:33:00,
2013-02-09 03:48:00,37.1,32.0,30.04,NE,40,2.0,7.0,81,0.00,,,0.00,0,weatherlink.com 1.10,2013-02-09 11:48:00,
2013-02-09 04:03:00,37.1,31.0,30.04,NE,44,4.0,6.0,80,0.00,,,0.00,0,weatherlink.com 1.10,2013-02-09 12:03:00,
2013-02-09 04:19:00,36.9,31.0,30.03,NE,51,4.0,7.0,80,0.00,,,0.00,0,weatherlink.com 1.10,2013-02-09 12:19:00,
2013-02-09 04:33:00,37.0,31.0,30.04,NE,44,7.0,8.0,80,0.00,,,0.00,0,weatherlink.com 1.10,2013-02-09 12:33:00,
2013-02-09 04:48:00,37.2,32.0,30.04,NNE,28,2.0,10.0,80,0.00,,,0.00,0,weatherlink.com 1.10,2013-02-09 12:48:00,
2013-02-09 05:03:00,40.0,34.0,30.03,NNE,20,6.0,8.0,78,0.00,,,0.00,0,weatherlink.com 1.10,2013-02-09 13:03:00,
2013-02-09 05:18:00,40.7,33.0,30.03,NNE,17,4.0,9.0,75,0.00,,,0.00,0,weatherlink.com 1.10,2013-02-09 13:18:00,
2013-02-09 05:33:00,40.9,33.0,30.03,NNE,30,4.0,11.0,74,0.00,,,0.00,0,weatherlink.com 1.10,2013-02-09 13:33:00,
2013-02-09 05:48:00,39.3,32.0,30.03,WSW,247,0.0,6.0,76,0.00,,,0.00,0,weatherlink.com 1.10,2013-02-09 13:48:00,
2013-02-09 06:03:00,37.3,31.0,30.04,NNE,19,1.0,6.0,78,0.00,,,0.00,0,weatherlink.com 1.10,2013-02-09 14:03:00,
2013-02-09 06:18:00,37.3,31.0,30.04,ENE,59,3.0,7.0,77,0.00,,,0.00,0,weatherlink.com 1.10,2013-02-09 14:18:00,
2013-02-09 06:33:00,35.6,30.0,30.04,NNE,31,7.0,9.0,79,0.00,,,0.00,0,weatherlink.com 1.10,2013-02-09 14:33:00,
2013-02-09 06:48:00,34.3,29.0,30.04,NE,37,7.0,9.0,80,0.00,,,0.00,0,weatherlink.com 1.10,2013-02-09 14:48:00,
2013-02-09 07:03:00,33.6,28.0,30.05,NE,47,5.0,11.0,81,0.00,,,0.00,0,weatherlink.com 1.10,2013-02-09 15:03:00,
2013-02-09 07:18:00,33.9,29.0,30.05,NE,53,5.0,8.0,81,0.00,,,0.00,9,weatherlink.com 1.10,2013-02-09 15:18:00,
2013-02-09 07:33:00,34.0,29.0,30.05,NE,34,4.0,10.0,81,0.00,,,0.00,16,weatherlink.com 1.10,2013-02-09 15:33:00,
2013-02-09 07:48:00,33.5,28.0,30.05,NE,45,3.0,11.0,81,0.00,,,0.00,33,weatherlink.com 1.10,2013-02-09 15:48:00,
2013-02-09 08:03:00,33.9,29.0,30.05,NE,43,0.0,5.0,82,0.00,,,0.00,98,weatherlink.com 1.10,2013-02-09 16:03:00,
2013-02-09 08:18:00,34.8,30.0,30.06,ENE,61,7.0,10.0,82,0.00,,,0.00,153,weatherlink.com 1.10,2013-02-09 16:18:00,
2013-02-09 08:33:00,36.1,31.0,30.06,ENE,57,3.0,8.0,82,0.00,,,0.00,211,weatherlink.com 1.10,2013-02-09 16:33:00,
2013-02-09 08:49:00,37.1,32.0,30.06,NE,50,3.0,8.0,81,0.00,,,0.00,271,weatherlink.com 1.10,2013-02-09 16:49:00,
2013-02-09 09:03:00,38.4,33.0,30.06,ENE,70,0.0,1.0,82,0.00,,,0.00,320,weatherlink.com 1.10,2013-02-09 17:03:00,
2013-02-09 09:18:00,40.7,35.0,30.06,East,100,0.0,5.0,80,0.00,,,0.00,366,weatherlink.com 1.10,2013-02-09 17:18:00,
2013-02-09 09:33:00,43.0,36.0,30.06,NNE,27,4.0,6.0,76,0.00,,,0.00,406,weatherlink.com 1.10,2013-02-09 17:33:00,
2013-02-09 09:49:00,44.7,37.0,30.06,SE,124,2.0,4.0,74,0.00,,,0.00,446,weatherlink.com 1.10,2013-02-09 17:49:00,
2013-02-09 10:04:00,46.3,38.0,30.06,ESE,107,0.0,8.0,73,0.00,,,0.00,483,weatherlink.com 1.10,2013-02-09 18:04:00,
2013-02-09 10:19:00,47.6,37.0,30.06,SW,235,2.0,3.0,68,0.00,,,0.00,517,weatherlink.com 1.10,2013-02-09 18:19:00,
2013-02-09 10:34:00,49.4,38.0,30.07,West,262,1.0,6.0,64,0.00,,,0.00,545,weatherlink.com 1.10,2013-02-09 18:34:00,
2013-02-09 10:49:00,48.5,37.0,30.07,SW,227,3.0,6.0,64,0.00,,,0.00,568,weatherlink.com 1.10,2013-02-09 18:49:00,
2013-02-09 11:04:00,49.4,38.0,30.08,West,275,2.0,5.0,65,0.00,,,0.00,592,weatherlink.com 1.10,2013-02-09 19:04:00,
2013-02-09 11:19:00,49.8,38.0,30.08,SSW,211,4.0,6.0,65,0.00,,,0.00,610,weatherlink.com 1.10,2013-02-09 19:19:00,
2013-02-09 11:34:00,50.6,38.0,30.08,SW,226,3.0,6.0,62,0.00,,,0.00,626,weatherlink.com 1.10,2013-02-09 19:34:00,
2013-02-09 11:49:00,51.6,39.0,30.09,West,281,6.0,6.0,62,0.00,,,0.00,635,weatherlink.com 1.10,2013-02-09 19:49:00,
2013-02-09 12:04:00,51.7,39.0,30.08,WSW,248,6.0,9.0,63,0.00,,,0.00,643,weatherlink.com 1.10,2013-02-09 20:04:00,
2013-02-09 12:19:00,52.4,38.0,30.07,WSW,252,6.0,8.0,59,0.00,,,0.00,649,weatherlink.com 1.10,2013-02-09 20:19:00,
2013-02-09 12:35:00,53.1,37.0,30.07,SSW,207,5.0,5.0,54,0.00,,,0.00,645,weatherlink.com 1.10,2013-02-09 20:35:00,
2013-02-09 12:49:00,54.1,36.0,30.07,South,190,5.0,5.0,50,0.00,,,0.00,643,weatherlink.com 1.10,2013-02-09 20:49:00,
2013-02-09 13:04:00,54.2,37.0,30.06,South,191,0.0,6.0,52,0.00,,,0.00,635,weatherlink.com 1.10,2013-02-09 21:04:00,
2013-02-09 13:19:00,55.1,34.0,30.07,SSW,205,4.0,6.0,46,0.00,,,0.00,626,weatherlink.com 1.10,2013-02-09 21:19:00,
2013-02-09 13:34:00,55.6,39.0,30.06,SW,219,3.0,6.0,54,0.00,,,0.00,605,weatherlink.com 1.10,2013-02-09 21:34:00,
2013-02-09 13:49:00,54.7,37.0,30.06,SSW,196,3.0,6.0,51,0.00,,,0.00,587,weatherlink.com 1.10,2013-02-09 21:49:00,
2013-02-09 14:04:00,55.1,34.0,30.05,South,189,1.0,6.0,46,0.00,,,0.00,563,weatherlink.com 1.10,2013-02-09 22:04:00,
2013-02-09 14:19:00,55.8,35.0,30.05,SSW,202,3.0,6.0,45,0.00,,,0.00,536,weatherlink.com 1.10,2013-02-09 22:19:00,
2013-02-09 14:34:00,56.5,33.0,30.05,SSW,201,2.0,5.0,42,0.00,,,0.00,510,weatherlink.com 1.10,2013-02-09 22:34:00,
2013-02-09 14:49:00,57.0,35.0,30.05,SSW,200,2.0,5.0,44,0.00,,,0.00,475,weatherlink.com 1.10,2013-02-09 22:49:00,
2013-02-09 15:04:00,57.2,34.0,30.05,SSW,209,1.0,4.0,42,0.00,,,0.00,438,weatherlink.com 1.10,2013-02-09 23:04:00,
2013-02-09 15:20:00,57.4,32.0,30.05,SSW,210,2.0,5.0,39,0.00,,,0.00,397,weatherlink.com 1.10,2013-02-09 23:20:00,
2013-02-09 15:35:00,57.9,34.0,30.05,SSW,204,3.0,4.0,40,0.00,,,0.00,357,weatherlink.com 1.10,2013-02-09 23:35:00,
2013-02-09 15:50:00,57.9,32.0,30.05,SW,228,2.0,4.0,37,0.00,,,0.00,315,weatherlink.com 1.10,2013-02-09 23:50:00,
2013-02-09 16:05:00,57.7,34.0,30.04,South,174,0.0,4.0,41,0.00,,,0.00,267,weatherlink.com 1.10,2013-02-10 00:05:00,
2013-02-09 16:20:00,57.8,34.0,30.05,SSW,196,1.0,3.0,41,0.00,,,0.00,220,weatherlink.com 1.10,2013-02-10 00:20:00,
2013-02-09 16:35:00,56.4,38.0,30.05,West,273,3.0,4.0,50,0.00,,,0.00,160,weatherlink.com 1.10,2013-02-10 00:35:00,
2013-02-09 16:50:00,56.7,40.0,30.05,West,266,1.0,3.0,54,0.00,,,0.00,105,weatherlink.com 1.10,2013-02-10 00:50:00,
2013-02-09 17:05:00,55.7,41.0,30.05,West,266,0.0,2.0,58,0.00,,,0.00,60,weatherlink.com 1.10,2013-02-10 01:05:00,
2013-02-09 17:20:00,55.4,42.0,30.05,West,266,1.0,2.0,62,0.00,,,0.00,28,weatherlink.com 1.10,2013-02-10 01:20:00,
2013-02-09 17:35:00,54.2,42.0,30.05,SE,139,1.0,2.0,63,0.00,,,0.00,12,weatherlink.com 1.10,2013-02-10 01:35:00,
2013-02-09 17:50:00,51.0,38.0,30.06,ENE,59,3.0,3.0,61,0.00,,,0.00,0,weatherlink.com 1.10,2013-02-10 01:50:00,
2013-02-09 18:05:00,46.6,35.0,30.06,NE,48,2.0,6.0,65,0.00,,,0.00,0,weatherlink.com 1.10,2013-02-10 02:05:00,
2013-02-09 18:20:00,46.5,35.0,30.06,NNW,348,1.0,4.0,65,0.00,,,0.00,0,weatherlink.com 1.10,2013-02-10 02:20:00,
2013-02-09 18:35:00,46.8,35.0,30.07,NE,38,0.0,4.0,65,0.00,,,0.00,0,weatherlink.com 1.10,2013-02-10 02:35:00,
2013-02-09 18:50:00,45.0,36.0,30.07,NE,38,9.0,10.0,70,0.00,,,0.00,0,weatherlink.com 1.10,2013-02-10 02:50:00,
2013-02-09 19:05:00,43.7,36.0,30.07,NNE,32,9.0,12.0,73,0.00,,,0.00,0,weatherlink.com 1.10,2013-02-10 03:05:00,
2013-02-09 19:20:00,44.4,36.0,30.07,NNE,31,4.0,6.0,73,0.00,,,0.00,0,weatherlink.com 1.10,2013-02-10 03:20:00,
2013-02-09 19:35:00,42.8,35.0,30.07,NE,38,7.0,8.0,74,0.00,,,0.00,0,weatherlink.com 1.10,2013-02-10 03:35:00,
2013-02-09 19:50:00,42.0,35.0,30.07,ESE,113,1.0,9.0,75,0.00,,,0.00,0,weatherlink.com 1.10,2013-02-10 03:50:00,
2013-02-09 20:05:00,41.6,35.0,30.07,NNE,30,7.0,11.0,76,0.00,,,0.00,0,weatherlink.com 1.10,2013-02-10 04:05:00,
2013-02-09 20:20:00,41.3,35.0,30.07,NNE,32,7.0,9.0,77,0.00,,,0.00,0,weatherlink.com 1.10,2013-02-10 04:20:00,
2013-02-09 20:35:00,41.0,36.0,30.08,East,89,1.0,10.0,82,0.00,,,0.00,0,weatherlink.com 1.10,2013-02-10 04:35:00,
2013-02-09 20:50:00,40.5,34.0,30.07,NE,40,3.0,6.0,77,0.00,,,0.00,0,weatherlink.com 1.10,2013-02-10 04:50:00,
2013-02-09 21:05:00,40.2,34.0,30.08,NE,39,4.0,7.0,78,0.00,,,0.00,0,weatherlink.com 1.10,2013-02-10 05:05:00,
2013-02-09 21:20:00,40.1,34.0,30.08,NE,35,8.0,11.0,79,0.00,,,0.00,0,weatherlink.com 1.10,2013-02-10 05:20:00,
2013-02-09 21:35:00,41.9,35.0,30.08,NNE,33,6.0,13.0,76,0.00,,,0.00,0,weatherlink.com 1.10,2013-02-10 05:35:00,
2013-02-09 21:50:00,41.0,34.0,30.09,NE,34,4.0,5.0,77,0.00,,,0.00,0,weatherlink.com 1.10,2013-02-10 05:50:00,
2013-02-09 22:05:00,39.3,33.0,30.08,NE,36,5.0,10.0,78,0.00,,,0.00,0,weatherlink.com 1.10,2013-02-10 06:05:00,
2013-02-09 22:20:00,38.8,33.0,30.09,ENE,75,4.0,9.0,79,0.00,,,0.00,0,weatherlink.com 1.10,2013-02-10 06:20:00,
2013-02-09 22:35:00,38.7,33.0,30.09,NE,34,9.0,12.0,80,0.00,,,0.00,0,weatherlink.com 1.10,2013-02-10 06:35:00,
2013-02-09 22:50:00,38.2,33.0,30.09,NE,40,10.0,12.0,80,0.00,,,0.00,0,weatherlink.com 1.10,2013-02-10 06:50:00,
2013-02-09 23:05:00,37.9,33.0,30.09,NNE,30,6.0,10.0,81,0.00,,,0.00,0,weatherlink.com 1.10,2013-02-10 07:05:00,
2013-02-09 23:20:00,37.7,32.0,30.10,NE,50,4.0,9.0,81,0.00,,,0.00,0,weatherlink.com 1.10,2013-02-10 07:20:00,
2013-02-09 23:35:00,37.2,32.0,30.10,NE,35,6.0,10.0,81,0.00,,,0.00,0,weatherlink.com 1.10,2013-02-10 07:35:00,
2013-02-09 23:50:00,37.1,32.0,30.10,NNE,30,5.0,8.0,81,0.00,,,0.00,0,weatherlink.com 1.10,2013-02-10 07:50:00,